Time;durP1;ratioP1;P1;durP2;ratioP2;P2;SDS_P1;SDS_P2;PMS_P1;PMS_P2;Temp;Humidity;BMP_temperature;BMP_pressure;BME280_temperature;BME280_humidity;BME280_pressure;Samples;Min_cycle;Max_cycle;Signal;HPM_P1;HPM_P2
2021/09/05 00:02:10;;;;;;;7.18;3.88;;;;;;;;;;5113777;28;20040;-81
2021/09/05 00:04:37;;;;;;;8.18;4.50;;;;;;;;;;5114018;28;20380;-81
2021/09/05 00:07:04;;;;;;;8.95;5.07;;;;;;;;;;5115051;28;20040;-81
2021/09/05 00:09:31;;;;;;;9.05;4.57;;;;;;;;;;5080703;28;20093;-81
2021/09/05 00:11:58;;;;;;;7.13;4.78;;;;;;;;;;5099051;28;20040;-82
2021/09/05 00:14:24;;;;;;;9.00;4.60;;;;;;;;;;5081456;28;20040;-82
2021/09/05 00:16:51;;;;;;;7.38;4.60;;;;;;;;;;5099373;28;20051;-81
2021/09/05 00:19:17;;;;;;;7.13;3.75;;;;;;;;;;5113606;28;20484;-81
2021/09/05 00:21:44;;;;;;;7.05;4.60;;;;;;;;;;5079951;28;20082;-81
2021/09/05 00:24:11;;;;;;;7.93;4.63;;;;;;;;;;5098457;28;20051;-81
2021/09/05 00:26:39;;;;;;;5.63;3.97;;;;;;;;;;5097409;28;20044;-81
2021/09/05 00:29:05;;;;;;;7.35;4.05;;;;;;;;;;5079473;28;20419;-82
2021/09/05 00:31:32;;;;;;;8.13;4.85;;;;;;;;;;5097679;28;20491;-81
2021/09/05 00:34:01;;;;;;;8.27;4.68;;;;;;;;;;5098404;28;20498;-82
2021/09/05 00:36:28;;;;;;;7.15;4.57;;;;;;;;;;5081214;28;20476;-82
2021/09/05 00:38:55;;;;;;;9.52;3.92;;;;;;;;;;5098093;28;20051;-82
2021/09/05 00:41:21;;;;;;;5.97;3.90;;;;;;;;;;5114592;28;20036;-82
2021/09/05 00:44:06;;;;;;;6.57;4.35;;;;;;;;;;5097916;28;20036;-81
2021/09/05 00:46:34;;;;;;;6.70;3.83;;;;;;;;;;5099215;28;20044;-81
2021/09/05 00:49:00;;;;;;;7.82;4.55;;;;;;;;;;5099861;28;20380;-82
2021/09/05 00:52:12;;;;;;;8.07;4.50;;;;;;;;;;5098551;28;20047;-81
2021/09/05 00:54:41;;;;;;;7.20;4.38;;;;;;;;;;5098158;28;20039;-81
2021/09/05 00:57:10;;;;;;;9.20;5.25;;;;;;;;;;5099402;28;20047;-81
2021/09/05 00:59:38;;;;;;;7.13;4.80;;;;;;;;;;5098656;28;20380;-81
2021/09/05 01:02:05;;;;;;;6.55;4.20;;;;;;;;;;5099610;28;20047;-82
2021/09/05 01:04:32;;;;;;;8.27;4.63;;;;;;;;;;5098563;28;20040;-82
2021/09/05 01:06:58;;;;;;;7.13;4.03;;;;;;;;;;5115262;28;20047;-81
2021/09/05 01:09:25;;;;;;;8.13;4.70;;;;;;;;;;5099297;28;20051;-81
2021/09/05 01:11:51;;;;;;;6.80;4.30;;;;;;;;;;5099955;28;20036;-82
2021/09/05 01:14:18;;;;;;;8.30;4.05;;;;;;;;;;5098891;28;20069;-82
2021/09/05 01:16:46;;;;;;;7.05;4.35;;;;;;;;;;5099040;28;20044;-82
2021/09/05 01:19:14;;;;;;;8.10;5.05;;;;;;;;;;5099311;28;20048;-81
2021/09/05 01:21:41;;;;;;;6.93;4.18;;;;;;;;;;5099796;28;20048;-81
2021/09/05 01:24:09;;;;;;;9.65;6.30;;;;;;;;;;5099097;28;20047;-82
2021/09/05 01:26:37;;;;;;;7.05;4.13;;;;;;;;;;5099860;28;20047;-81
2021/09/05 01:29:06;;;;;;;8.00;4.90;;;;;;;;;;5098783;28;20051;-81
2021/09/05 01:31:40;;;;;;;9.85;4.75;;;;;;;;;;5099370;28;20044;-81
2021/09/05 01:34:08;;;;;;;7.25;4.45;;;;;;;;;;5081278;28;20082;-81
2021/09/05 01:36:35;;;;;;;10.70;4.80;;;;;;;;;;5098838;28;20036;-81
2021/09/05 01:39:01;;;;;;;7.05;4.05;;;;;;;;;;5113739;28;20048;-81
2021/09/05 01:41:28;;;;;;;7.88;4.22;;;;;;;;;;5098654;28;20051;-81
2021/09/05 01:43:58;;;;;;;7.68;4.85;;;;;;;;;;5099352;28;20052;-81
2021/09/05 01:46:26;;;;;;;7.18;4.50;;;;;;;;;;5098525;28;20072;-81
2021/09/05 01:48:52;;;;;;;7.38;4.60;;;;;;;;;;5098209;28;20061;-81
2021/09/05 01:51:19;;;;;;;9.73;4.53;;;;;;;;;;5082337;28;20068;-81
2021/09/05 01:53:46;;;;;;;7.32;4.68;;;;;;;;;;5102208;28;20492;-81
2021/09/05 01:56:12;;;;;;;7.93;3.97;;;;;;;;;;5083795;28;20043;-81
2021/09/05 01:58:39;;;;;;;8.98;4.32;;;;;;;;;;5102965;28;20044;-81
2021/09/05 02:01:05;;;;;;;7.35;4.85;;;;;;;;;;5101968;28;20054;-81
2021/09/05 02:03:33;;;;;;;8.00;4.90;;;;;;;;;;5101977;28;20472;-81
2021/09/05 02:06:00;;;;;;;8.15;4.32;;;;;;;;;;5102410;28;20040;-81
2021/09/05 02:08:26;;;;;;;9.35;4.53;;;;;;;;;;5102148;28;20521;-81
2021/09/05 02:10:53;;;;;;;7.95;5.07;;;;;;;;;;5102941;28;20047;-81
2021/09/05 02:13:20;;;;;;;8.30;4.70;;;;;;;;;;5118056;28;20039;-81
2021/09/05 02:15:46;;;;;;;6.50;4.43;;;;;;;;;;5102227;28;20044;-81
2021/09/05 02:18:13;;;;;;;8.43;5.25;;;;;;;;;;5117532;28;20044;-80
2021/09/05 02:20:41;;;;;;;8.23;4.80;;;;;;;;;;5117883;28;20127;-81
2021/09/05 02:23:08;;;;;;;5.50;3.90;;;;;;;;;;5101720;28;20040;-81
2021/09/05 02:25:34;;;;;;;6.50;4.22;;;;;;;;;;5100871;28;20040;-81
2021/09/05 02:28:01;;;;;;;7.68;4.75;;;;;;;;;;5117079;28;20048;-81
2021/09/05 02:30:27;;;;;;;7.47;3.92;;;;;;;;;;5102183;28;20060;-81
2021/09/05 02:32:53;;;;;;;9.13;4.72;;;;;;;;;;5083765;28;20051;-81
2021/09/05 02:35:20;;;;;;;9.05;4.60;;;;;;;;;;5101326;28;20044;-81
2021/09/05 02:37:48;;;;;;;7.72;4.60;;;;;;;;;;5101365;28;20051;-81
2021/09/05 02:40:14;;;;;;;7.22;4.68;;;;;;;;;;5101413;28;20044;-81
2021/09/05 02:42:41;;;;;;;9.50;5.15;;;;;;;;;;5101376;28;20430;-81
2021/09/05 02:45:08;;;;;;;7.95;5.13;;;;;;;;;;5116646;28;20472;-80
2021/09/05 02:47:35;;;;;;;6.63;4.35;;;;;;;;;;5101897;28;20044;-81
2021/09/05 02:50:01;;;;;;;6.93;4.10;;;;;;;;;;5101186;28;20063;-81
2021/09/05 02:52:28;;;;;;;9.00;5.07;;;;;;;;;;5083225;28;20055;-81
2021/09/05 02:54:56;;;;;;;6.00;4.28;;;;;;;;;;5117233;28;20055;-81
2021/09/05 02:57:22;;;;;;;8.30;4.93;;;;;;;;;;5101157;28;20047;-81
2021/09/05 02:59:49;;;;;;;7.60;4.65;;;;;;;;;;5098963;28;20076;-80
2021/09/05 03:02:15;;;;;;;8.85;4.53;;;;;;;;;;5100092;28;20040;-80
2021/09/05 03:04:42;;;;;;;8.82;5.53;;;;;;;;;;5101139;28;20142;-80
2021/09/05 03:07:08;;;;;;;6.32;4.13;;;;;;;;;;5101188;28;20044;-80
2021/09/05 03:09:35;;;;;;;8.07;5.00;;;;;;;;;;5083146;28;20087;-81
2021/09/05 03:12:03;;;;;;;8.88;4.50;;;;;;;;;;5101831;28;20047;-81
2021/09/05 03:14:30;;;;;;;9.98;5.55;;;;;;;;;;5100211;28;20063;-81
2021/09/05 03:16:56;;;;;;;8.65;4.45;;;;;;;;;;5115741;28;20435;-81
2021/09/05 03:19:23;;;;;;;7.05;4.70;;;;;;;;;;5115488;28;20464;-80
2021/09/05 03:21:49;;;;;;;10.32;5.07;;;;;;;;;;5082957;28;20118;-80
2021/09/05 03:24:16;;;;;;;7.30;4.85;;;;;;;;;;5100374;28;20044;-80
2021/09/05 03:26:42;;;;;;;10.23;5.18;;;;;;;;;;5100759;28;20052;-80
2021/09/05 03:29:10;;;;;;;9.80;6.10;;;;;;;;;;5100122;28;20048;-81
2021/09/05 03:31:37;;;;;;;9.90;5.43;;;;;;;;;;5100940;28;20070;-81
2021/09/05 03:34:03;;;;;;;9.48;5.40;;;;;;;;;;5099854;28;20070;-81
2021/09/05 03:36:30;;;;;;;10.18;5.40;;;;;;;;;;5082071;28;20079;-81
2021/09/05 03:38:57;;;;;;;9.02;4.95;;;;;;;;;;5100385;28;20044;-80
2021/09/05 03:41:23;;;;;;;7.95;5.18;;;;;;;;;;5099812;28;20402;-80
2021/09/05 03:43:49;;;;;;;7.93;5.13;;;;;;;;;;5099680;28;20063;-81
2021/09/05 03:46:17;;;;;;;8.07;5.20;;;;;;;;;;5116477;28;20036;-80
2021/09/05 03:48:44;;;;;;;7.68;5.07;;;;;;;;;;5099639;28;20040;-80
2021/09/05 03:51:10;;;;;;;8.50;4.72;;;;;;;;;;5099299;28;20055;-80
2021/09/05 03:53:37;;;;;;;7.22;4.35;;;;;;;;;;5100022;28;20036;-80
2021/09/05 03:56:04;;;;;;;7.88;4.47;;;;;;;;;;5099413;28;20502;-80
2021/09/05 03:58:30;;;;;;;8.40;5.05;;;;;;;;;;5115452;28;20079;-81
2021/09/05 04:00:58;;;;;;;8.85;5.40;;;;;;;;;;5099511;28;20040;-80
2021/09/05 04:03:25;;;;;;;7.55;4.28;;;;;;;;;;5099665;28;20051;-80
2021/09/05 04:05:52;;;;;;;6.97;4.93;;;;;;;;;;5099747;28;20040;-79
2021/09/05 04:08:18;;;;;;;8.52;4.75;;;;;;;;;;5100232;28;20048;-81
2021/09/05 04:10:45;;;;;;;7.05;4.82;;;;;;;;;;5099597;28;20503;-80
2021/09/05 04:13:13;;;;;;;7.57;4.47;;;;;;;;;;5098916;28;20036;-80
2021/09/05 04:15:40;;;;;;;9.35;4.63;;;;;;;;;;5099948;28;20040;-80
2021/09/05 04:18:06;;;;;;;9.70;5.45;;;;;;;;;;5098818;28;20048;-81
2021/09/05 04:20:34;;;;;;;8.40;4.63;;;;;;;;;;5080667;28;20436;-80
2021/09/05 04:23:01;;;;;;;7.40;5.03;;;;;;;;;;5098745;28;20400;-80
2021/09/05 04:25:27;;;;;;;6.47;4.40;;;;;;;;;;5098892;28;20040;-80
2021/09/05 04:27:53;;;;;;;8.20;4.40;;;;;;;;;;5100894;28;20376;-80
2021/09/05 04:30:20;;;;;;;7.57;4.55;;;;;;;;;;5099703;28;20361;-80
2021/09/05 04:32:47;;;;;;;9.55;5.10;;;;;;;;;;5114907;28;20419;-80
2021/09/05 04:35:13;;;;;;;13.45;5.20;;;;;;;;;;5099179;28;20499;-80
2021/09/05 04:37:41;;;;;;;8.38;5.78;;;;;;;;;;5099230;28;20047;-80
2021/09/05 04:40:08;;;;;;;8.95;5.13;;;;;;;;;;5098857;28;20050;-80
2021/09/05 04:42:36;;;;;;;10.98;5.57;;;;;;;;;;5099143;28;20040;-80
2021/09/05 04:45:03;;;;;;;10.50;5.38;;;;;;;;;;5099978;28;20386;-80
2021/09/05 04:47:29;;;;;;;11.32;5.82;;;;;;;;;;5098532;28;20483;-80
2021/09/05 04:49:56;;;;;;;14.18;7.35;;;;;;;;;;5098776;28;20040;-81
2021/09/05 04:52:22;;;;;;;12.27;6.38;;;;;;;;;;5098800;28;20510;-80
2021/09/05 04:54:50;;;;;;;9.48;5.32;;;;;;;;;;5099297;28;20051;-80
2021/09/05 04:57:16;;;;;;;8.93;5.53;;;;;;;;;;5099236;28;20044;-80
2021/09/05 04:59:43;;;;;;;8.88;4.82;;;;;;;;;;5099597;28;20044;-81
2021/09/05 05:02:09;;;;;;;10.85;6.00;;;;;;;;;;5115361;28;20523;-81
2021/09/05 05:04:36;;;;;;;8.35;5.07;;;;;;;;;;5098995;28;20055;-80
2021/09/05 05:07:02;;;;;;;10.57;5.80;;;;;;;;;;5098615;28;20044;-80
2021/09/05 05:09:29;;;;;;;8.65;5.03;;;;;;;;;;5080713;28;20083;-80
2021/09/05 05:11:57;;;;;;;7.07;4.25;;;;;;;;;;5099206;28;20044;-80
2021/09/05 05:14:23;;;;;;;8.15;4.85;;;;;;;;;;5098619;28;20044;-80
2021/09/05 05:16:49;;;;;;;9.07;4.55;;;;;;;;;;5098925;28;20376;-80
2021/09/05 05:19:16;;;;;;;13.38;5.15;;;;;;;;;;5098827;28;20431;-80
2021/09/05 05:21:42;;;;;;;10.93;5.20;;;;;;;;;;5080512;28;20047;-81
2021/09/05 05:24:09;;;;;;;14.50;6.70;;;;;;;;;;5098629;28;20051;-81
2021/09/05 05:26:35;;;;;;;7.53;5.35;;;;;;;;;;5101284;28;20036;-81
2021/09/05 05:29:03;;;;;;;11.27;5.45;;;;;;;;;;5102216;28;20070;-80
2021/09/05 05:31:29;;;;;;;9.38;4.70;;;;;;;;;;5101658;28;20044;-80
2021/09/05 05:33:56;;;;;;;8.60;5.45;;;;;;;;;;5102246;28;20047;-81
2021/09/05 05:36:22;;;;;;;8.50;5.25;;;;;;;;;;5085443;28;20130;-80
2021/09/05 05:38:49;;;;;;;9.45;5.20;;;;;;;;;;5103437;28;20040;-80
2021/09/05 05:41:19;;;;;;;8.05;5.20;;;;;;;;;;5067754;28;20075;-80
2021/09/05 05:43:45;;;;;;;9.02;6.22;;;;;;;;;;5102427;28;20099;-80
2021/09/05 05:46:13;;;;;;;10.10;6.38;;;;;;;;;;5103271;28;20047;-80
2021/09/05 05:48:39;;;;;;;9.18;7.13;;;;;;;;;;5102947;28;20044;-81
2021/09/05 05:51:06;;;;;;;10.20;6.53;;;;;;;;;;5102883;28;20051;-81
2021/09/05 05:53:32;;;;;;;10.27;6.00;;;;;;;;;;5103374;28;20048;-80
2021/09/05 05:55:59;;;;;;;8.80;5.80;;;;;;;;;;5102239;28;20044;-80
2021/09/05 05:58:26;;;;;;;9.40;5.15;;;;;;;;;;5102235;28;20036;-80
2021/09/05 06:00:53;;;;;;;10.25;6.25;;;;;;;;;;5101780;28;20510;-80
2021/09/05 06:03:21;;;;;;;13.15;6.45;;;;;;;;;;5102328;28;20061;-80
2021/09/05 06:05:47;;;;;;;6.80;5.28;;;;;;;;;;5102449;28;20134;-81
2021/09/05 06:08:14;;;;;;;10.68;5.03;;;;;;;;;;5102465;28;20048;-81
2021/09/05 06:10:41;;;;;;;10.32;6.15;;;;;;;;;;5083962;28;20189;-81
2021/09/05 06:13:07;;;;;;;10.05;6.30;;;;;;;;;;5101234;28;20040;-81
2021/09/05 06:15:33;;;;;;;10.45;4.90;;;;;;;;;;5102563;28;20051;-81
2021/09/05 06:18:00;;;;;;;9.30;5.90;;;;;;;;;;5101677;28;20047;-82
2021/09/05 06:20:28;;;;;;;11.85;6.32;;;;;;;;;;5102058;28;20109;-82
2021/09/05 06:22:55;;;;;;;8.82;5.88;;;;;;;;;;5102117;28;20040;-81
2021/09/05 06:25:21;;;;;;;9.35;5.68;;;;;;;;;;5101883;28;20042;-82
2021/09/05 06:27:48;;;;;;;10.52;5.68;;;;;;;;;;5101748;28;20055;-81
2021/09/05 06:30:14;;;;;;;8.98;6.40;;;;;;;;;;5116690;28;20043;-82
2021/09/05 06:32:41;;;;;;;11.88;6.32;;;;;;;;;;5101572;28;20051;-81
2021/09/05 06:35:08;;;;;;;9.48;6.32;;;;;;;;;;5103071;28;20047;-82
2021/09/05 06:37:36;;;;;;;11.15;6.55;;;;;;;;;;5102065;28;20051;-82
2021/09/05 06:40:03;;;;;;;15.73;6.75;;;;;;;;;;5101003;28;20040;-82
2021/09/05 06:42:30;;;;;;;17.38;7.07;;;;;;;;;;5083144;28;20040;-82
2021/09/05 06:44:56;;;;;;;11.52;6.65;;;;;;;;;;5083482;28;20084;-82
2021/09/05 06:47:23;;;;;;;12.23;6.90;;;;;;;;;;5083371;28;20044;-82
2021/09/05 06:49:49;;;;;;;15.32;7.45;;;;;;;;;;5100646;28;20044;-83
2021/09/05 06:52:15;;;;;;;10.85;6.70;;;;;;;;;;5101176;28;20040;-81
2021/09/05 06:54:43;;;;;;;10.80;6.80;;;;;;;;;;5101666;28;20044;-82
2021/09/05 06:57:10;;;;;;;10.48;7.85;;;;;;;;;;5082574;28;20047;-82
2021/09/05 06:59:36;;;;;;;14.23;7.47;;;;;;;;;;5101861;28;20043;-81
2021/09/05 07:02:03;;;;;;;10.68;6.68;;;;;;;;;;5083549;28;20083;-82
2021/09/05 07:04:30;;;;;;;13.95;7.78;;;;;;;;;;5101688;28;20040;-81
2021/09/05 07:06:56;;;;;;;11.10;6.93;;;;;;;;;;5099753;28;20044;-82
2021/09/05 07:09:23;;;;;;;12.18;6.75;;;;;;;;;;5083456;28;20040;-82
2021/09/05 07:11:51;;;;;;;10.27;6.72;;;;;;;;;;5083526;28;20078;-82
2021/09/05 07:14:17;;;;;;;12.27;7.43;;;;;;;;;;5102497;28;20044;-82
2021/09/05 07:16:44;;;;;;;11.40;7.72;;;;;;;;;;5118564;28;20047;-83
2021/09/05 07:19:10;;;;;;;10.63;7.32;;;;;;;;;;5101830;28;20040;-82
2021/09/05 07:21:37;;;;;;;13.65;8.65;;;;;;;;;;5102309;28;20047;-83
2021/09/05 07:24:03;;;;;;;12.48;8.02;;;;;;;;;;5102919;28;20039;-83
2021/09/05 07:26:30;;;;;;;11.02;8.57;;;;;;;;;;5101950;28;20047;-83
2021/09/05 07:28:58;;;;;;;13.50;8.18;;;;;;;;;;5085548;28;20047;-84
2021/09/05 07:31:24;;;;;;;11.50;7.85;;;;;;;;;;5103587;28;20048;-84
2021/09/05 07:33:51;;;;;;;11.77;7.78;;;;;;;;;;5085868;28;20047;-83
2021/09/05 07:36:17;;;;;;;12.25;8.82;;;;;;;;;;5103486;28;20047;-83
2021/09/05 07:38:44;;;;;;;11.27;8.20;;;;;;;;;;5085988;28;20048;-83
2021/09/05 07:41:10;;;;;;;12.50;8.38;;;;;;;;;;5103759;28;20491;-83
2021/09/05 07:43:37;;;;;;;12.63;8.77;;;;;;;;;;5119877;28;20044;-84
2021/09/05 07:46:04;;;;;;;12.15;8.45;;;;;;;;;;5104301;28;20071;-83
2021/09/05 07:48:31;;;;;;;13.13;8.63;;;;;;;;;;5104113;28;20040;-82
2021/09/05 07:50:58;;;;;;;11.50;8.25;;;;;;;;;;5100186;28;20040;-82
2021/09/05 07:53:24;;;;;;;12.27;8.43;;;;;;;;;;5099736;28;20044;-82
2021/09/05 07:55:51;;;;;;;13.55;8.63;;;;;;;;;;5098566;28;20443;-82
2021/09/05 07:58:17;;;;;;;14.70;8.55;;;;;;;;;;5115337;28;20040;-83
2021/09/05 08:00:44;;;;;;;12.00;8.38;;;;;;;;;;5081793;28;20048;-84
2021/09/05 08:03:12;;;;;;;11.73;8.32;;;;;;;;;;5098439;28;20407;-83
2021/09/05 08:05:39;;;;;;;14.25;9.27;;;;;;;;;;5099562;28;20058;-83
2021/09/05 08:08:06;;;;;;;17.48;9.13;;;;;;;;;;5099309;28;20040;-83
2021/09/05 08:10:32;;;;;;;12.90;9.13;;;;;;;;;;5099068;28;20036;-82
2021/09/05 08:12:59;;;;;;;12.23;8.75;;;;;;;;;;5097166;28;20048;-83
2021/09/05 08:15:26;;;;;;;11.98;7.78;;;;;;;;;;5097434;28;20047;-83
2021/09/05 08:17:52;;;;;;;13.13;8.48;;;;;;;;;;5098392;28;20076;-83
2021/09/05 08:20:20;;;;;;;10.23;7.07;;;;;;;;;;5099251;28;20048;-83
2021/09/05 08:22:47;;;;;;;9.43;7.47;;;;;;;;;;5097978;28;20062;-83
2021/09/05 08:25:14;;;;;;;10.25;7.57;;;;;;;;;;5114902;28;20040;-83
2021/09/05 08:27:40;;;;;;;9.50;7.20;;;;;;;;;;5098400;28;20533;-83
2021/09/05 08:30:08;;;;;;;11.15;7.38;;;;;;;;;;5081018;28;20044;-82
2021/09/05 08:32:34;;;;;;;12.25;7.68;;;;;;;;;;5098077;28;20052;-83
2021/09/05 08:35:01;;;;;;;10.15;7.13;;;;;;;;;;5097929;28;20044;-83
2021/09/05 08:37:30;;;;;;;11.07;7.53;;;;;;;;;;5080154;28;20052;-80
2021/09/05 08:39:56;;;;;;;10.60;7.68;;;;;;;;;;5079999;28;20040;-80
2021/09/05 08:42:23;;;;;;;12.38;8.60;;;;;;;;;;5098615;28;20051;-81
2021/09/05 08:44:49;;;;;;;10.52;7.47;;;;;;;;;;5077953;28;20135;-83
2021/09/05 08:47:16;;;;;;;11.75;8.02;;;;;;;;;;5097161;28;20345;-84
2021/09/05 08:49:43;;;;;;;9.95;7.25;;;;;;;;;;5078638;28;20044;-81
2021/09/05 08:52:10;;;;;;;10.45;7.40;;;;;;;;;;5097625;28;20124;-82
2021/09/05 08:54:38;;;;;;;9.25;7.32;;;;;;;;;;5097326;28;20070;-82
2021/09/05 08:57:05;;;;;;;10.43;7.65;;;;;;;;;;5097581;28;20051;-82
2021/09/05 08:59:32;;;;;;;9.73;7.75;;;;;;;;;;5079131;28;20040;-83
2021/09/05 09:02:00;;;;;;;9.50;6.72;;;;;;;;;;5081223;28;20504;-82
2021/09/05 09:04:34;;;;;;;11.15;7.75;;;;;;;;;;5100905;28;20055;-83
2021/09/05 09:07:09;;;;;;;8.68;6.32;;;;;;;;;;5102643;28;20044;-83
2021/09/05 09:09:35;;;;;;;9.00;6.72;;;;;;;;;;5102714;28;20078;-82
2021/09/05 09:12:04;;;;;;;8.82;6.45;;;;;;;;;;5101895;28;20070;-82
2021/09/05 09:14:41;;;;;;;7.57;6.22;;;;;;;;;;5103578;28;20044;-83
2021/09/05 09:17:11;;;;;;;7.97;5.72;;;;;;;;;;5104754;28;20422;-82
2021/09/05 09:19:38;;;;;;;8.55;6.03;;;;;;;;;;5103035;28;20040;-83
2021/09/05 09:22:06;;;;;;;11.00;6.22;;;;;;;;;;5102725;28;20381;-83
2021/09/05 09:24:40;;;;;;;9.07;6.00;;;;;;;;;;5085082;28;20048;-83
2021/09/05 09:27:08;;;;;;;10.68;6.90;;;;;;;;;;5104425;28;20036;-83
2021/09/05 09:29:36;;;;;;;10.07;6.43;;;;;;;;;;5103047;28;20040;-82
2021/09/05 09:32:05;;;;;;;8.63;6.70;;;;;;;;;;5102223;28;20040;-83
2021/09/05 09:34:39;;;;;;;7.85;5.88;;;;;;;;;;5102927;28;20040;-83
2021/09/05 09:37:13;;;;;;;6.80;5.57;;;;;;;;;;5101349;28;20036;-83
2021/09/05 09:39:44;;;;;;;9.65;6.25;;;;;;;;;;5102694;28;20423;-81
2021/09/05 09:42:29;;;;;;;7.30;5.45;;;;;;;;;;5103670;28;20044;-83
2021/09/05 09:44:56;;;;;;;6.40;5.15;;;;;;;;;;5102553;28;20054;-83
2021/09/05 09:47:22;;;;;;;7.97;5.78;;;;;;;;;;5083374;28;20387;-82
2021/09/05 09:49:50;;;;;;;7.03;5.13;;;;;;;;;;5101115;28;20043;-83
2021/09/05 09:52:17;;;;;;;8.25;4.63;;;;;;;;;;5116075;28;20070;-82
2021/09/05 09:54:44;;;;;;;6.82;4.95;;;;;;;;;;5100413;28;20044;-83
2021/09/05 09:57:12;;;;;;;8.25;4.90;;;;;;;;;;5081216;28;20047;-83
2021/09/05 09:59:39;;;;;;;10.00;4.75;;;;;;;;;;5100151;28;20044;-83
2021/09/05 10:02:06;;;;;;;9.05;4.72;;;;;;;;;;5100326;28;20483;-82
2021/09/05 10:04:33;;;;;;;7.57;4.75;;;;;;;;;;5100224;28;20050;-82
2021/09/05 10:07:02;;;;;;;6.75;4.50;;;;;;;;;;5082579;28;20040;-82
2021/09/05 10:09:30;;;;;;;5.80;4.40;;;;;;;;;;5101012;28;20040;-82
2021/09/05 10:11:58;;;;;;;5.95;4.47;;;;;;;;;;5084746;28;20043;-83
2021/09/05 10:14:29;;;;;;;5.88;4.75;;;;;;;;;;5102790;28;20078;-83
2021/09/05 10:16:56;;;;;;;6.45;4.25;;;;;;;;;;5102393;28;20044;-83
2021/09/05 10:19:25;;;;;;;5.88;4.30;;;;;;;;;;5103513;28;20036;-84
2021/09/05 10:21:52;;;;;;;8.00;5.07;;;;;;;;;;5103910;28;20123;-83
2021/09/05 10:24:20;;;;;;;5.93;4.00;;;;;;;;;;5085225;28;20079;-83
2021/09/05 10:27:02;;;;;;;5.72;3.83;;;;;;;;;;5103816;28;20076;-83
2021/09/05 10:29:38;;;;;;;5.80;3.63;;;;;;;;;;5103928;28;20047;-83
2021/09/05 10:32:08;;;;;;;5.53;3.75;;;;;;;;;;5103502;28;20266;-83
2021/09/05 10:34:38;;;;;;;7.68;3.92;;;;;;;;;;5103069;28;20062;-82
2021/09/05 10:37:11;;;;;;;5.75;3.90;;;;;;;;;;5103321;28;20043;-83
2021/09/05 10:39:37;;;;;;;7.40;4.22;;;;;;;;;;5104107;28;20044;-83
2021/09/05 10:42:24;;;;;;;6.32;4.90;;;;;;;;;;5104287;28;20465;-82
2021/09/05 10:45:05;;;;;;;5.88;4.13;;;;;;;;;;5102964;28;20044;-82
2021/09/05 10:47:41;;;;;;;6.63;3.90;;;;;;;;;;5104009;28;20051;-82
2021/09/05 10:50:33;;;;;;;6.40;3.80;;;;;;;;;;5102301;28;20047;-83
2021/09/05 10:53:14;;;;;;;6.30;4.43;;;;;;;;;;5101001;28;20043;-82
2021/09/05 10:56:02;;;;;;;5.78;3.90;;;;;;;;;;5084772;28;20044;-83
2021/09/05 10:58:36;;;;;;;5.53;3.78;;;;;;;;;;5102109;28;20043;-81
2021/09/05 11:01:06;;;;;;;6.85;4.43;;;;;;;;;;5101610;28;20044;-81
2021/09/05 11:03:33;;;;;;;5.45;4.00;;;;;;;;;;5104202;28;20040;-85
2021/09/05 11:06:33;;;;;;;5.63;3.63;;;;;;;;;;5085019;28;20495;-84
2021/09/05 11:09:33;;;;;;;5.68;3.60;;;;;;;;;;5099538;28;20040;-83
2021/09/05 11:12:03;;;;;;;5.82;3.97;;;;;;;;;;5087089;28;20066;-84
2021/09/05 11:14:57;;;;;;;5.20;3.47;;;;;;;;;;5103289;28;20054;-82
2021/09/05 11:17:35;;;;;;;4.60;3.47;;;;;;;;;;5109466;28;20100;-84
2021/09/05 11:20:04;;;;;;;5.35;3.65;;;;;;;;;;5092152;28;20048;-84
2021/09/05 11:22:33;;;;;;;5.65;3.63;;;;;;;;;;5109545;28;20048;-84
2021/09/05 11:25:18;;;;;;;5.38;3.80;;;;;;;;;;5108051;28;20052;-84
2021/09/05 11:27:57;;;;;;;5.40;3.50;;;;;;;;;;5104335;28;20047;-81
2021/09/05 11:30:24;;;;;;;6.88;4.22;;;;;;;;;;5102458;28;20278;-84
2021/09/05 11:32:59;;;;;;;5.03;3.70;;;;;;;;;;5101598;28;20051;-84
2021/09/05 11:35:26;;;;;;;5.85;3.60;;;;;;;;;;5101606;28;20054;-84
2021/09/05 11:37:55;;;;;;;4.50;3.53;;;;;;;;;;5100479;28;20050;-83
2021/09/05 11:40:22;;;;;;;20.35;4.18;;;;;;;;;;5100190;28;20035;-83
2021/09/05 11:42:50;;;;;;;5.03;3.30;;;;;;;;;;5100562;28;20040;-84
2021/09/05 11:45:19;;;;;;;6.03;4.05;;;;;;;;;;5101035;28;20044;-84
2021/09/05 11:47:47;;;;;;;6.75;4.25;;;;;;;;;;5103198;28;20476;-84
2021/09/05 11:50:16;;;;;;;6.47;4.15;;;;;;;;;;5099840;28;20044;-85
2021/09/05 11:52:43;;;;;;;5.35;3.65;;;;;;;;;;5100855;28;20047;-85
2021/09/05 11:55:12;;;;;;;6.68;4.07;;;;;;;;;;5102372;28;20044;-85
2021/09/05 11:57:51;;;;;;;6.47;3.55;;;;;;;;;;5088303;28;20043;-83
2021/09/05 12:00:24;;;;;;;4.93;3.42;;;;;;;;;;5104615;28;20049;-85
2021/09/05 12:02:51;;;;;;;4.60;3.65;;;;;;;;;;5104594;28;20054;-86
2021/09/05 12:05:19;;;;;;;4.68;3.33;;;;;;;;;;5102594;28;20483;-85
2021/09/05 12:07:46;;;;;;;5.60;3.40;;;;;;;;;;5082905;28;20036;-84
2021/09/05 12:10:15;;;;;;;5.55;3.72;;;;;;;;;;5101921;28;20122;-84
2021/09/05 12:12:43;;;;;;;4.47;3.42;;;;;;;;;;5101204;28;20472;-83
2021/09/05 12:15:18;;;;;;;5.00;3.38;;;;;;;;;;5099808;28;20450;-83
2021/09/05 12:17:46;;;;;;;5.20;3.40;;;;;;;;;;5100324;28;20066;-83
2021/09/05 12:20:14;;;;;;;5.38;3.42;;;;;;;;;;5100514;28;20126;-84
2021/09/05 12:22:44;;;;;;;5.75;4.15;;;;;;;;;;5100233;28;20051;-81
2021/09/05 12:25:17;;;;;;;4.90;3.25;;;;;;;;;;5100893;28;20051;-83
2021/09/05 12:27:58;;;;;;;6.15;4.28;;;;;;;;;;5100085;28;20040;-82
2021/09/05 12:30:27;;;;;;;6.07;3.45;;;;;;;;;;5099421;28;20040;-83
2021/09/05 12:33:11;;;;;;;5.35;3.58;;;;;;;;;;5100147;28;20047;-84
2021/09/05 12:35:38;;;;;;;5.93;3.20;;;;;;;;;;5100164;28;20462;-83
2021/09/05 12:38:11;;;;;;;5.50;3.47;;;;;;;;;;5100000;28;20043;-82
2021/09/05 12:40:39;;;;;;;5.40;3.47;;;;;;;;;;5099865;28;20048;-82
2021/09/05 12:43:06;;;;;;;4.88;3.30;;;;;;;;;;5099231;28;20044;-82
2021/09/05 12:45:33;;;;;;;6.18;3.45;;;;;;;;;;5099791;28;20039;-82
2021/09/05 12:48:17;;;;;;;5.53;3.70;;;;;;;;;;5099363;28;20050;-81
2021/09/05 12:50:43;;;;;;;4.70;3.40;;;;;;;;;;5099029;28;20036;-81
2021/09/05 12:53:13;;;;;;;5.50;3.47;;;;;;;;;;5080666;28;20049;-79
2021/09/05 12:55:39;;;;;;;5.55;3.38;;;;;;;;;;5099220;28;20040;-82
2021/09/05 12:58:06;;;;;;;4.85;3.22;;;;;;;;;;5080467;28;20040;-81
2021/09/05 13:00:32;;;;;;;5.45;3.65;;;;;;;;;;5099385;28;20063;-82
2021/09/05 13:03:00;;;;;;;4.88;3.58;;;;;;;;;;5099106;28;20044;-83
2021/09/05 13:05:27;;;;;;;6.07;3.63;;;;;;;;;;5098890;28;20044;-83
2021/09/05 13:07:53;;;;;;;4.30;3.10;;;;;;;;;;5098044;28;20480;-83
2021/09/05 13:10:21;;;;;;;5.10;3.28;;;;;;;;;;5080002;28;20457;-81
2021/09/05 13:12:48;;;;;;;4.80;3.10;;;;;;;;;;5098990;28;20048;-84
2021/09/05 13:15:14;;;;;;;5.63;3.15;;;;;;;;;;5098464;28;20044;-83
2021/09/05 13:17:41;;;;;;;4.72;3.45;;;;;;;;;;5082162;28;20043;-84
2021/09/05 13:20:12;;;;;;;4.60;2.95;;;;;;;;;;5099973;28;20063;-84
2021/09/05 13:22:39;;;;;;;4.93;3.35;;;;;;;;;;5082356;28;20051;-81
2021/09/05 13:25:08;;;;;;;5.57;3.15;;;;;;;;;;5098270;28;20353;-81
2021/09/05 13:27:37;;;;;;;4.90;3.75;;;;;;;;;;5098874;28;20040;-81
2021/09/05 13:30:04;;;;;;;5.93;3.20;;;;;;;;;;5098351;28;20123;-81
2021/09/05 13:32:31;;;;;;;4.22;3.15;;;;;;;;;;5081228;28;20040;-83
2021/09/05 13:34:58;;;;;;;4.47;3.58;;;;;;;;;;5099078;28;20040;-82
2021/09/05 13:37:24;;;;;;;5.18;3.25;;;;;;;;;;5098033;28;20040;-82
2021/09/05 13:39:51;;;;;;;4.85;3.00;;;;;;;;;;5098959;28;20036;-81
2021/09/05 13:42:17;;;;;;;4.57;3.13;;;;;;;;;;5098238;28;20044;-80
2021/09/05 13:44:47;;;;;;;5.13;3.45;;;;;;;;;;5099250;28;20043;-81
2021/09/05 13:47:15;;;;;;;4.20;3.03;;;;;;;;;;5100028;28;20089;-82
2021/09/05 13:49:42;;;;;;;5.63;3.30;;;;;;;;;;5084284;28;20399;-81
2021/09/05 13:52:10;;;;;;;4.90;3.40;;;;;;;;;;5084241;28;20036;-81
2021/09/05 13:54:37;;;;;;;6.70;3.33;;;;;;;;;;5102044;28;20046;-82
2021/09/05 13:57:05;;;;;;;4.70;3.42;;;;;;;;;;5101596;28;20047;-82
2021/09/05 14:09:15;;;;;;;4.43;3.17;;;;;;;;;;4912763;28;20053;-81
2021/09/05 14:11:42;;;;;;;4.35;3.20;;;;;;;;;;5037118;28;20045;-82
2021/09/05 14:14:11;;;;;;;6.40;2.80;;;;;;;;;;5041804;28;20087;-82
2021/09/05 14:19:56;;;;;;;4.40;2.95;;;;;;;;;;5011392;28;20099;-82
2021/09/05 14:22:23;;;;;;;4.63;3.33;;;;;;;;;;5103245;28;20048;-81
2021/09/05 14:24:53;;;;;;;5.47;2.83;;;;;;;;;;5102714;28;20130;-83
2021/09/05 14:27:22;;;;;;;4.63;3.28;;;;;;;;;;5104147;28;20051;-82
2021/09/05 14:29:55;;;;;;;4.80;2.88;;;;;;;;;;5101783;28;20056;-82
2021/09/05 14:32:25;;;;;;;5.00;3.38;;;;;;;;;;5103857;28;20468;-82
2021/09/05 14:35:02;;;;;;;4.60;3.28;;;;;;;;;;5094118;28;20044;-82
2021/09/05 14:48:42;;;;;;;4.57;3.05;;;;;;;;;;5103987;28;20046;-83
2021/09/05 14:56:39;;;;;;;4.57;3.10;;;;;;;;;;5108666;28;20504;-82
2021/09/05 14:59:16;;;;;;;4.60;3.30;;;;;;;;;;5107654;28;20497;-83
2021/09/05 15:01:54;;;;;;;4.78;3.17;;;;;;;;;;5079457;28;20104;-82
2021/09/05 15:12:57;;;;;;;4.47;3.20;;;;;;;;;;5110210;28;20103;-82
2021/09/05 15:15:27;;;;;;;4.00;3.08;;;;;;;;;;5093617;28;20047;-82
2021/09/05 15:17:58;;;;;;;5.00;3.33;;;;;;;;;;5108433;28;20044;-82
2021/09/05 15:20:27;;;;;;;4.35;3.30;;;;;;;;;;5091625;28;20051;-82
2021/09/05 15:22:57;;;;;;;4.28;3.05;;;;;;;;;;5109343;28;20032;-82
2021/09/05 15:25:24;;;;;;;5.40;3.40;;;;;;;;;;5108979;28;20069;-82
2021/09/05 15:27:58;;;;;;;5.00;2.83;;;;;;;;;;5105058;28;20044;-82